sensor_id;sensor_type;location;lat;lon;timestamp;temperature;humidity
7002;DHT22;3541;53.230;10.518;2023-07-28T00:02:01;16.90;99.90
7002;DHT22;3541;53.230;10.518;2023-07-28T00:04:28;16.90;99.90
7002;DHT22;3541;53.230;10.518;2023-07-28T00:06:55;16.90;99.90
7002;DHT22;3541;53.230;10.518;2023-07-28T00:09:21;16.90;99.90
7002;DHT22;3541;53.230;10.518;2023-07-28T00:11:49;17.00;99.90
7002;DHT22;3541;53.230;10.518;2023-07-28T00:14:15;16.90;99.90
7002;DHT22;3541;53.230;10.518;2023-07-28T00:16:42;17.00;99.90
7002;DHT22;3541;53.230;10.518;2023-07-28T00:19:10;16.90;99.90
7002;DHT22;3541;53.230;10.518;2023-07-28T00:21:37;16.90;99.90
7002;DHT22;3541;53.230;10.518;2023-07-28T00:24:04;16.80;99.90
7002;DHT22;3541;53.230;10.518;2023-07-28T00:26:31;16.80;99.90
7002;DHT22;3541;53.230;10.518;2023-07-28T00:28:57;16.90;99.90
7002;DHT22;3541;53.230;10.518;2023-07-28T00:31:24;16.90;99.90
7002;DHT22;3541;53.230;10.518;2023-07-28T00:33:51;16.90;99.90
7002;DHT22;3541;53.230;10.518;2023-07-28T00:36:19;17.00;99.90
7002;DHT22;3541;53.230;10.518;2023-07-28T00:38:46;16.90;99.90
7002;DHT22;3541;53.230;10.518;2023-07-28T00:41:12;16.90;99.90
7002;DHT22;3541;53.230;10.518;2023-07-28T00:43:39;16.90;99.90
7002;DHT22;3541;53.230;10.518;2023-07-28T00:46:06;16.90;99.90
7002;DHT22;3541;53.230;10.518;2023-07-28T00:48:33;17.00;99.90
7002;DHT22;3541;53.230;10.518;2023-07-28T00:50:59;16.90;99.90
7002;DHT22;3541;53.230;10.518;2023-07-28T00:53:29;17.00;99.90
7002;DHT22;3541;53.230;10.518;2023-07-28T00:55:56;17.00;99.90
7002;DHT22;3541;53.230;10.518;2023-07-28T00:58:23;16.90;99.90
7002;DHT22;3541;53.230;10.518;2023-07-28T01:00:49;16.90;99.90
7002;DHT22;3541;53.230;10.518;2023-07-28T01:03:18;16.90;99.90
7002;DHT22;3541;53.230;10.518;2023-07-28T01:05:53;16.90;99.90
7002;DHT22;3541;53.230;10.518;2023-07-28T01:08:26;16.90;99.90
7002;DHT22;3541;53.230;10.518;2023-07-28T01:10:55;16.90;99.90
7002;DHT22;3541;53.230;10.518;2023-07-28T01:13:21;16.90;99.90
7002;DHT22;3541;53.230;10.518;2023-07-28T01:15:48;16.90;99.90
7002;DHT22;3541;53.230;10.518;2023-07-28T01:18:15;16.90;99.90
7002;DHT22;3541;53.230;10.518;2023-07-28T01:20:42;16.90;99.90
7002;DHT22;3541;53.230;10.518;2023-07-28T01:23:19;16.90;99.90
7002;DHT22;3541;53.230;10.518;2023-07-28T01:26:02;17.00;99.90
7002;DHT22;3541;53.230;10.518;2023-07-28T01:28:32;16.90;99.90
7002;DHT22;3541;53.230;10.518;2023-07-28T01:31:01;16.90;99.90
7002;DHT22;3541;53.230;10.518;2023-07-28T01:33:28;16.90;99.90
7002;DHT22;3541;53.230;10.518;2023-07-28T01:35:54;16.90;99.90
7002;DHT22;3541;53.230;10.518;2023-07-28T01:38:21;17.00;99.90
7002;DHT22;3541;53.230;10.518;2023-07-28T01:40:48;17.00;99.90
7002;DHT22;3541;53.230;10.518;2023-07-28T01:43:14;17.00;99.90
7002;DHT22;3541;53.230;10.518;2023-07-28T01:45:42;17.00;99.90
7002;DHT22;3541;53.230;10.518;2023-07-28T01:48:09;17.00;99.90
7002;DHT22;3541;53.230;10.518;2023-07-28T01:50:35;17.00;99.90
7002;DHT22;3541;53.230;10.518;2023-07-28T01:53:03;17.00;99.90
7002;DHT22;3541;53.230;10.518;2023-07-28T01:55:30;17.00;99.90
7002;DHT22;3541;53.230;10.518;2023-07-28T01:57:57;17.00;99.90
7002;DHT22;3541;53.230;10.518;2023-07-28T02:00:25;17.00;99.90
7002;DHT22;3541;53.230;10.518;2023-07-28T02:02:53;17.00;99.90
7002;DHT22;3541;53.230;10.518;2023-07-28T02:05:20;17.00;99.90
7002;DHT22;3541;53.230;10.518;2023-07-28T02:07:47;17.00;99.90
7002;DHT22;3541;53.230;10.518;2023-07-28T02:10:13;17.10;99.90
7002;DHT22;3541;53.230;10.518;2023-07-28T02:12:40;17.00;99.90
7002;DHT22;3541;53.230;10.518;2023-07-28T02:15:08;17.00;99.90
7002;DHT22;3541;53.230;10.518;2023-07-28T02:17:34;17.00;99.90
7002;DHT22;3541;53.230;10.518;2023-07-28T02:20:03;17.00;99.90
7002;DHT22;3541;53.230;10.518;2023-07-28T02:22:29;17.00;99.90
7002;DHT22;3541;53.230;10.518;2023-07-28T02:24:56;17.00;99.90
7002;DHT22;3541;53.230;10.518;2023-07-28T02:27:27;17.10;99.90
7002;DHT22;3541;53.230;10.518;2023-07-28T02:29:53;17.00;99.90
7002;DHT22;3541;53.230;10.518;2023-07-28T02:32:20;17.10;99.90
7002;DHT22;3541;53.230;10.518;2023-07-28T02:34:46;17.10;99.90
7002;DHT22;3541;53.230;10.518;2023-07-28T02:37:14;17.10;99.90
7002;DHT22;3541;53.230;10.518;2023-07-28T02:39:41;17.10;99.90
7002;DHT22;3541;53.230;10.518;2023-07-28T02:42:08;17.10;99.90
7002;DHT22;3541;53.230;10.518;2023-07-28T02:44:34;17.10;99.90
7002;DHT22;3541;53.230;10.518;2023-07-28T02:47:01;17.10;99.90
7002;DHT22;3541;53.230;10.518;2023-07-28T02:49:28;17.10;99.90
7002;DHT22;3541;53.230;10.518;2023-07-28T02:51:54;17.10;99.90
7002;DHT22;3541;53.230;10.518;2023-07-28T02:54:22;17.10;99.90
7002;DHT22;3541;53.230;10.518;2023-07-28T02:56:50;17.10;99.90
7002;DHT22;3541;53.230;10.518;2023-07-28T02:59:17;17.10;99.90
7002;DHT22;3541;53.230;10.518;2023-07-28T03:01:44;17.10;99.90
7002;DHT22;3541;53.230;10.518;2023-07-28T03:04:10;17.20;99.90
7002;DHT22;3541;53.230;10.518;2023-07-28T03:06:37;17.10;99.90
7002;DHT22;3541;53.230;10.518;2023-07-28T03:09:04;17.10;99.90
7002;DHT22;3541;53.230;10.518;2023-07-28T03:11:31;17.10;99.90
7002;DHT22;3541;53.230;10.518;2023-07-28T03:13:58;17.10;99.90
7002;DHT22;3541;53.230;10.518;2023-07-28T03:16:25;17.10;99.90
7002;DHT22;3541;53.230;10.518;2023-07-28T03:18:51;17.20;99.90
7002;DHT22;3541;53.230;10.518;2023-07-28T03:21:18;17.10;99.90
7002;DHT22;3541;53.230;10.518;2023-07-28T03:23:44;17.10;99.90
7002;DHT22;3541;53.230;10.518;2023-07-28T03:26:11;17.10;99.90
7002;DHT22;3541;53.230;10.518;2023-07-28T03:28:39;17.10;99.90
7002;DHT22;3541;53.230;10.518;2023-07-28T03:31:05;17.10;99.90
7002;DHT22;3541;53.230;10.518;2023-07-28T03:33:32;17.10;99.90
7002;DHT22;3541;53.230;10.518;2023-07-28T03:35:59;17.20;99.90
7002;DHT22;3541;53.230;10.518;2023-07-28T03:38:25;17.10;99.90
7002;DHT22;3541;53.230;10.518;2023-07-28T03:40:52;17.10;99.90
7002;DHT22;3541;53.230;10.518;2023-07-28T03:43:20;17.20;99.90
7002;DHT22;3541;53.230;10.518;2023-07-28T03:45:48;17.20;99.90
7002;DHT22;3541;53.230;10.518;2023-07-28T03:48:15;17.20;99.90
7002;DHT22;3541;53.230;10.518;2023-07-28T03:50:41;17.20;99.90
7002;DHT22;3541;53.230;10.518;2023-07-28T03:53:08;17.20;99.90
7002;DHT22;3541;53.230;10.518;2023-07-28T03:55:35;17.20;99.90
7002;DHT22;3541;53.230;10.518;2023-07-28T03:58:01;17.20;99.90
7002;DHT22;3541;53.230;10.518;2023-07-28T04:00:29;17.20;99.90
7002;DHT22;3541;53.230;10.518;2023-07-28T04:02:57;17.20;99.90
7002;DHT22;3541;53.230;10.518;2023-07-28T04:05:23;17.20;99.90
7002;DHT22;3541;53.230;10.518;2023-07-28T04:07:50;17.20;99.90
7002;DHT22;3541;53.230;10.518;2023-07-28T04:10:17;17.20;99.90
7002;DHT22;3541;53.230;10.518;2023-07-28T04:12:43;17.20;99.90
7002;DHT22;3541;53.230;10.518;2023-07-28T04:15:10;17.20;99.90
7002;DHT22;3541;53.230;10.518;2023-07-28T04:17:36;17.20;99.90
7002;DHT22;3541;53.230;10.518;2023-07-28T04:20:06;17.20;99.90
7002;DHT22;3541;53.230;10.518;2023-07-28T04:22:32;17.30;99.90
7002;DHT22;3541;53.230;10.518;2023-07-28T04:24:59;17.30;99.90
7002;DHT22;3541;53.230;10.518;2023-07-28T04:27:26;17.20;99.90
7002;DHT22;3541;53.230;10.518;2023-07-28T04:29:52;17.20;99.90
7002;DHT22;3541;53.230;10.518;2023-07-28T04:32:19;17.20;99.90
7002;DHT22;3541;53.230;10.518;2023-07-28T04:34:45;17.30;99.90
7002;DHT22;3541;53.230;10.518;2023-07-28T04:37:13;17.20;99.90
7002;DHT22;3541;53.230;10.518;2023-07-28T04:39:40;17.20;99.90
7002;DHT22;3541;53.230;10.518;2023-07-28T04:42:06;17.30;99.90
7002;DHT22;3541;53.230;10.518;2023-07-28T04:44:34;17.30;99.90
7002;DHT22;3541;53.230;10.518;2023-07-28T04:47:01;17.20;99.90
7002;DHT22;3541;53.230;10.518;2023-07-28T04:49:27;17.20;99.90
7002;DHT22;3541;53.230;10.518;2023-07-28T04:51:54;17.20;99.90
7002;DHT22;3541;53.230;10.518;2023-07-28T04:54:22;17.30;99.90
7002;DHT22;3541;53.230;10.518;2023-07-28T04:56:48;17.30;99.90
7002;DHT22;3541;53.230;10.518;2023-07-28T04:59:18;17.20;99.90
7002;DHT22;3541;53.230;10.518;2023-07-28T05:01:45;17.20;99.90
7002;DHT22;3541;53.230;10.518;2023-07-28T05:04:11;17.30;99.90
7002;DHT22;3541;53.230;10.518;2023-07-28T05:06:38;17.20;99.90
7002;DHT22;3541;53.230;10.518;2023-07-28T05:09:04;17.20;99.90
7002;DHT22;3541;53.230;10.518;2023-07-28T05:11:32;17.20;99.90
7002;DHT22;3541;53.230;10.518;2023-07-28T05:13:59;17.10;99.90
7002;DHT22;3541;53.230;10.518;2023-07-28T05:16:25;17.10;99.90
7002;DHT22;3541;53.230;10.518;2023-07-28T05:18:52;17.20;99.90
7002;DHT22;3541;53.230;10.518;2023-07-28T05:21:18;17.20;99.90
7002;DHT22;3541;53.230;10.518;2023-07-28T05:23:45;17.10;99.90
7002;DHT22;3541;53.230;10.518;2023-07-28T05:26:12;17.10;99.90
7002;DHT22;3541;53.230;10.518;2023-07-28T05:28:40;17.10;99.90
7002;DHT22;3541;53.230;10.518;2023-07-28T05:31:07;17.20;99.90
7002;DHT22;3541;53.230;10.518;2023-07-28T05:33:34;17.10;99.90
7002;DHT22;3541;53.230;10.518;2023-07-28T05:36:01;17.20;99.90
7002;DHT22;3541;53.230;10.518;2023-07-28T05:38:27;17.20;99.90
7002;DHT22;3541;53.230;10.518;2023-07-28T05:40:57;17.20;99.90
7002;DHT22;3541;53.230;10.518;2023-07-28T05:43:25;17.20;99.90
7002;DHT22;3541;53.230;10.518;2023-07-28T05:45:53;17.20;99.90
7002;DHT22;3541;53.230;10.518;2023-07-28T05:48:20;17.30;99.90
7002;DHT22;3541;53.230;10.518;2023-07-28T05:50:46;17.30;99.90
7002;DHT22;3541;53.230;10.518;2023-07-28T05:53:13;17.30;99.90
7002;DHT22;3541;53.230;10.518;2023-07-28T05:55:40;17.20;99.90
7002;DHT22;3541;53.230;10.518;2023-07-28T05:58:07;17.20;99.90
7002;DHT22;3541;53.230;10.518;2023-07-28T06:00:33;17.20;99.90
7002;DHT22;3541;53.230;10.518;2023-07-28T06:03:01;17.20;99.90
7002;DHT22;3541;53.230;10.518;2023-07-28T06:05:29;17.20;99.90
7002;DHT22;3541;53.230;10.518;2023-07-28T06:07:55;17.30;99.90
7002;DHT22;3541;53.230;10.518;2023-07-28T06:10:22;17.30;99.90
7002;DHT22;3541;53.230;10.518;2023-07-28T06:12:48;17.30;99.90
7002;DHT22;3541;53.230;10.518;2023-07-28T06:15:15;17.30;99.90
7002;DHT22;3541;53.230;10.518;2023-07-28T06:17:41;17.40;99.90
7002;DHT22;3541;53.230;10.518;2023-07-28T06:20:10;17.40;99.90
7002;DHT22;3541;53.230;10.518;2023-07-28T06:22:37;17.40;99.90
7002;DHT22;3541;53.230;10.518;2023-07-28T06:25:04;17.40;99.90
7002;DHT22;3541;53.230;10.518;2023-07-28T06:27:30;17.50;99.90
7002;DHT22;3541;53.230;10.518;2023-07-28T06:29:57;17.50;99.90
7002;DHT22;3541;53.230;10.518;2023-07-28T06:32:23;17.50;99.90
7002;DHT22;3541;53.230;10.518;2023-07-28T06:34:50;17.60;99.90
7002;DHT22;3541;53.230;10.518;2023-07-28T06:37:19;17.60;99.90
7002;DHT22;3541;53.230;10.518;2023-07-28T06:39:46;17.70;99.90
7002;DHT22;3541;53.230;10.518;2023-07-28T06:42:12;17.60;99.90
7002;DHT22;3541;53.230;10.518;2023-07-28T06:44:39;17.60;99.90
7002;DHT22;3541;53.230;10.518;2023-07-28T06:47:05;17.60;99.90
7002;DHT22;3541;53.230;10.518;2023-07-28T06:49:32;17.60;99.90
7002;DHT22;3541;53.230;10.518;2023-07-28T06:51:58;17.60;99.90
7002;DHT22;3541;53.230;10.518;2023-07-28T06:54:26;17.60;99.90
7002;DHT22;3541;53.230;10.518;2023-07-28T06:56:53;17.60;99.90
7002;DHT22;3541;53.230;10.518;2023-07-28T06:59:19;17.60;99.90
7002;DHT22;3541;53.230;10.518;2023-07-28T07:01:46;17.70;99.90
7002;DHT22;3541;53.230;10.518;2023-07-28T07:04:13;17.70;99.90
7002;DHT22;3541;53.230;10.518;2023-07-28T07:06:39;17.70;99.90
7002;DHT22;3541;53.230;10.518;2023-07-28T07:09:06;17.70;99.90
7002;DHT22;3541;53.230;10.518;2023-07-28T07:11:35;17.60;99.90
7002;DHT22;3541;53.230;10.518;2023-07-28T07:14:02;17.70;99.90
7002;DHT22;3541;53.230;10.518;2023-07-28T07:16:28;17.70;99.90
7002;DHT22;3541;53.230;10.518;2023-07-28T07:18:55;17.70;99.90
7002;DHT22;3541;53.230;10.518;2023-07-28T07:21:21;17.70;99.90
7002;DHT22;3541;53.230;10.518;2023-07-28T07:23:48;17.80;99.90
7002;DHT22;3541;53.230;10.518;2023-07-28T07:26:14;17.80;99.90
7002;DHT22;3541;53.230;10.518;2023-07-28T07:28:42;17.80;99.90
7002;DHT22;3541;53.230;10.518;2023-07-28T07:31:12;17.80;99.90
7002;DHT22;3541;53.230;10.518;2023-07-28T07:33:38;17.80;99.90
7002;DHT22;3541;53.230;10.518;2023-07-28T07:36:05;17.90;99.90
7002;DHT22;3541;53.230;10.518;2023-07-28T07:38:32;17.90;99.90
7002;DHT22;3541;53.230;10.518;2023-07-28T07:40:58;18.00;99.90
7002;DHT22;3541;53.230;10.518;2023-07-28T07:43:27;18.00;99.90
7002;DHT22;3541;53.230;10.518;2023-07-28T07:45:55;17.90;99.90
7002;DHT22;3541;53.230;10.518;2023-07-28T07:48:21;17.90;99.90
7002;DHT22;3541;53.230;10.518;2023-07-28T07:50:48;17.90;99.90
7002;DHT22;3541;53.230;10.518;2023-07-28T07:53:14;18.00;99.90
7002;DHT22;3541;53.230;10.518;2023-07-28T07:55:41;18.00;99.90
7002;DHT22;3541;53.230;10.518;2023-07-28T07:58:08;18.00;99.90
7002;DHT22;3541;53.230;10.518;2023-07-28T08:00:36;18.00;99.90
7002;DHT22;3541;53.230;10.518;2023-07-28T08:03:04;18.00;99.90
7002;DHT22;3541;53.230;10.518;2023-07-28T08:05:31;18.00;99.90
7002;DHT22;3541;53.230;10.518;2023-07-28T08:07:59;18.10;99.90
7002;DHT22;3541;53.230;10.518;2023-07-28T08:10:26;18.20;99.90
7002;DHT22;3541;53.230;10.518;2023-07-28T08:12:52;18.20;99.90
7002;DHT22;3541;53.230;10.518;2023-07-28T08:15:19;18.30;99.90
7002;DHT22;3541;53.230;10.518;2023-07-28T08:17:46;18.30;99.90
7002;DHT22;3541;53.230;10.518;2023-07-28T08:20:14;18.20;99.90
7002;DHT22;3541;53.230;10.518;2023-07-28T08:22:40;18.20;99.90
7002;DHT22;3541;53.230;10.518;2023-07-28T08:25:07;18.20;99.90
7002;DHT22;3541;53.230;10.518;2023-07-28T08:27:34;18.30;99.90
7002;DHT22;3541;53.230;10.518;2023-07-28T08:30:01;18.30;99.90
7002;DHT22;3541;53.230;10.518;2023-07-28T08:32:27;18.20;99.90
7002;DHT22;3541;53.230;10.518;2023-07-28T08:34:54;18.20;99.90
7002;DHT22;3541;53.230;10.518;2023-07-28T08:37:22;18.20;99.90
7002;DHT22;3541;53.230;10.518;2023-07-28T08:39:49;18.20;99.90
7002;DHT22;3541;53.230;10.518;2023-07-28T08:42:15;18.20;99.90
7002;DHT22;3541;53.230;10.518;2023-07-28T08:44:42;18.20;99.90
7002;DHT22;3541;53.230;10.518;2023-07-28T08:47:10;18.20;99.90
7002;DHT22;3541;53.230;10.518;2023-07-28T08:49:37;18.20;99.90
7002;DHT22;3541;53.230;10.518;2023-07-28T08:52:04;18.20;99.90
7002;DHT22;3541;53.230;10.518;2023-07-28T08:54:32;18.20;99.90
7002;DHT22;3541;53.230;10.518;2023-07-28T08:56:59;18.30;99.90
7002;DHT22;3541;53.230;10.518;2023-07-28T08:59:27;18.30;99.90
7002;DHT22;3541;53.230;10.518;2023-07-28T09:01:57;18.30;99.90
7002;DHT22;3541;53.230;10.518;2023-07-28T09:04:26;18.30;99.90
7002;DHT22;3541;53.230;10.518;2023-07-28T09:06:53;18.40;99.90
7002;DHT22;3541;53.230;10.518;2023-07-28T09:09:21;18.40;99.90
7002;DHT22;3541;53.230;10.518;2023-07-28T09:11:51;18.40;99.90
7002;DHT22;3541;53.230;10.518;2023-07-28T09:14:20;18.30;99.90
7002;DHT22;3541;53.230;10.518;2023-07-28T09:16:47;18.40;99.90
7002;DHT22;3541;53.230;10.518;2023-07-28T09:19:14;18.40;99.90
7002;DHT22;3541;53.230;10.518;2023-07-28T09:21:43;18.40;99.90
7002;DHT22;3541;53.230;10.518;2023-07-28T09:24:12;18.40;99.90
7002;DHT22;3541;53.230;10.518;2023-07-28T09:26:39;18.40;99.90
7002;DHT22;3541;53.230;10.518;2023-07-28T09:29:15;18.60;99.90
7002;DHT22;3541;53.230;10.518;2023-07-28T09:31:42;18.60;99.90
7002;DHT22;3541;53.230;10.518;2023-07-28T09:34:09;18.60;99.90
7002;DHT22;3541;53.230;10.518;2023-07-28T09:36:36;18.70;99.90
7002;DHT22;3541;53.230;10.518;2023-07-28T09:39:04;18.70;99.90
7002;DHT22;3541;53.230;10.518;2023-07-28T09:41:34;18.70;99.90
7002;DHT22;3541;53.230;10.518;2023-07-28T09:44:02;18.70;99.90
7002;DHT22;3541;53.230;10.518;2023-07-28T09:46:32;18.70;99.90
7002;DHT22;3541;53.230;10.518;2023-07-28T09:49:03;18.70;99.90
7002;DHT22;3541;53.230;10.518;2023-07-28T09:51:31;18.70;99.90
7002;DHT22;3541;53.230;10.518;2023-07-28T09:54:03;18.70;99.90
7002;DHT22;3541;53.230;10.518;2023-07-28T09:56:30;18.80;99.90
7002;DHT22;3541;53.230;10.518;2023-07-28T09:58:58;18.80;99.90
7002;DHT22;3541;53.230;10.518;2023-07-28T10:01:25;18.80;99.90
7002;DHT22;3541;53.230;10.518;2023-07-28T10:03:54;18.80;99.90
7002;DHT22;3541;53.230;10.518;2023-07-28T10:06:21;18.80;99.90
7002;DHT22;3541;53.230;10.518;2023-07-28T10:08:48;18.80;99.90
7002;DHT22;3541;53.230;10.518;2023-07-28T10:11:15;18.90;99.90
7002;DHT22;3541;53.230;10.518;2023-07-28T10:13:43;18.90;99.90
7002;DHT22;3541;53.230;10.518;2023-07-28T10:16:12;18.80;99.90
7002;DHT22;3541;53.230;10.518;2023-07-28T10:18:40;18.70;99.90
7002;DHT22;3541;53.230;10.518;2023-07-28T10:21:10;18.70;99.90
7002;DHT22;3541;53.230;10.518;2023-07-28T10:23:39;18.70;99.90
7002;DHT22;3541;53.230;10.518;2023-07-28T10:26:06;18.80;99.90
7002;DHT22;3541;53.230;10.518;2023-07-28T10:28:35;18.80;99.90
7002;DHT22;3541;53.230;10.518;2023-07-28T10:31:05;18.80;99.90
7002;DHT22;3541;53.230;10.518;2023-07-28T10:33:33;18.80;99.90
7002;DHT22;3541;53.230;10.518;2023-07-28T10:36:12;18.80;99.90
7002;DHT22;3541;53.230;10.518;2023-07-28T10:38:39;18.80;99.90
7002;DHT22;3541;53.230;10.518;2023-07-28T10:41:11;18.80;99.90
7002;DHT22;3541;53.230;10.518;2023-07-28T10:43:39;18.80;99.90
7002;DHT22;3541;53.230;10.518;2023-07-28T10:46:08;18.80;99.90
7002;DHT22;3541;53.230;10.518;2023-07-28T10:48:36;18.80;99.90
7002;DHT22;3541;53.230;10.518;2023-07-28T10:51:03;18.90;99.90
7002;DHT22;3541;53.230;10.518;2023-07-28T10:53:31;19.00;99.90
7002;DHT22;3541;53.230;10.518;2023-07-28T10:55:58;19.10;99.90
7002;DHT22;3541;53.230;10.518;2023-07-28T10:58:25;19.20;99.90
7002;DHT22;3541;53.230;10.518;2023-07-28T11:00:52;19.30;99.90
7002;DHT22;3541;53.230;10.518;2023-07-28T11:03:18;19.30;99.90
7002;DHT22;3541;53.230;10.518;2023-07-28T11:05:45;19.30;99.90
7002;DHT22;3541;53.230;10.518;2023-07-28T11:08:14;19.20;99.90
7002;DHT22;3541;53.230;10.518;2023-07-28T11:10:42;19.30;99.90
7002;DHT22;3541;53.230;10.518;2023-07-28T11:13:08;19.30;99.90
7002;DHT22;3541;53.230;10.518;2023-07-28T11:15:35;19.40;99.90
7002;DHT22;3541;53.230;10.518;2023-07-28T11:18:03;19.50;99.90
7002;DHT22;3541;53.230;10.518;2023-07-28T11:20:30;19.70;99.90
7002;DHT22;3541;53.230;10.518;2023-07-28T11:22:58;19.90;99.90
7002;DHT22;3541;53.230;10.518;2023-07-28T11:25:26;20.10;99.90
7002;DHT22;3541;53.230;10.518;2023-07-28T11:27:55;20.10;99.90
7002;DHT22;3541;53.230;10.518;2023-07-28T11:30:23;20.20;99.90
7002;DHT22;3541;53.230;10.518;2023-07-28T11:32:51;20.20;99.90
7002;DHT22;3541;53.230;10.518;2023-07-28T11:35:19;20.10;99.90
7002;DHT22;3541;53.230;10.518;2023-07-28T11:37:48;20.10;99.90
7002;DHT22;3541;53.230;10.518;2023-07-28T11:40:17;20.10;99.90
7002;DHT22;3541;53.230;10.518;2023-07-28T11:42:45;20.10;99.90
7002;DHT22;3541;53.230;10.518;2023-07-28T11:45:16;20.10;99.90
7002;DHT22;3541;53.230;10.518;2023-07-28T11:47:52;20.20;99.90
7002;DHT22;3541;53.230;10.518;2023-07-28T11:50:22;20.10;99.90
7002;DHT22;3541;53.230;10.518;2023-07-28T11:52:49;20.10;99.90
7002;DHT22;3541;53.230;10.518;2023-07-28T11:55:16;20.00;99.90
7002;DHT22;3541;53.230;10.518;2023-07-28T11:57:43;19.90;99.90
7002;DHT22;3541;53.230;10.518;2023-07-28T12:00:11;19.90;99.90
7002;DHT22;3541;53.230;10.518;2023-07-28T12:02:44;19.80;99.90
7002;DHT22;3541;53.230;10.518;2023-07-28T12:05:13;19.80;99.90
7002;DHT22;3541;53.230;10.518;2023-07-28T12:07:40;19.70;99.90
7002;DHT22;3541;53.230;10.518;2023-07-28T12:10:07;19.70;99.90
7002;DHT22;3541;53.230;10.518;2023-07-28T12:12:46;19.70;99.90
7002;DHT22;3541;53.230;10.518;2023-07-28T12:15:22;19.70;99.90
7002;DHT22;3541;53.230;10.518;2023-07-28T12:18:09;19.60;99.90
7002;DHT22;3541;53.230;10.518;2023-07-28T12:20:37;19.60;99.90
7002;DHT22;3541;53.230;10.518;2023-07-28T12:23:05;19.50;99.90
7002;DHT22;3541;53.230;10.518;2023-07-28T12:25:32;19.40;99.90
7002;DHT22;3541;53.230;10.518;2023-07-28T12:27:59;19.30;99.90
7002;DHT22;3541;53.230;10.518;2023-07-28T12:30:26;19.30;99.90
7002;DHT22;3541;53.230;10.518;2023-07-28T12:32:53;19.40;99.90
7002;DHT22;3541;53.230;10.518;2023-07-28T12:35:21;19.30;99.90
7002;DHT22;3541;53.230;10.518;2023-07-28T12:37:49;19.30;99.90
7002;DHT22;3541;53.230;10.518;2023-07-28T12:40:15;19.40;99.90
7002;DHT22;3541;53.230;10.518;2023-07-28T12:42:42;19.40;99.90
7002;DHT22;3541;53.230;10.518;2023-07-28T12:45:09;19.50;99.90
7002;DHT22;3541;53.230;10.518;2023-07-28T12:47:36;19.60;99.90
7002;DHT22;3541;53.230;10.518;2023-07-28T12:50:03;19.70;99.90
7002;DHT22;3541;53.230;10.518;2023-07-28T12:52:33;19.90;99.90
7002;DHT22;3541;53.230;10.518;2023-07-28T12:54:59;20.00;99.90
7002;DHT22;3541;53.230;10.518;2023-07-28T12:57:26;20.20;99.90
7002;DHT22;3541;53.230;10.518;2023-07-28T12:59:53;20.30;99.90
7002;DHT22;3541;53.230;10.518;2023-07-28T13:02:19;20.40;99.90
7002;DHT22;3541;53.230;10.518;2023-07-28T13:04:46;20.40;99.90
7002;DHT22;3541;53.230;10.518;2023-07-28T13:07:13;20.30;99.90
7002;DHT22;3541;53.230;10.518;2023-07-28T13:09:40;20.30;99.90
7002;DHT22;3541;53.230;10.518;2023-07-28T13:12:08;20.20;99.90
7002;DHT22;3541;53.230;10.518;2023-07-28T13:14:34;20.10;99.90
7002;DHT22;3541;53.230;10.518;2023-07-28T13:17:01;20.20;99.90
7002;DHT22;3541;53.230;10.518;2023-07-28T13:19:28;20.30;99.90
7002;DHT22;3541;53.230;10.518;2023-07-28T13:21:54;20.50;99.90
7002;DHT22;3541;53.230;10.518;2023-07-28T13:24:21;20.60;99.90
7002;DHT22;3541;53.230;10.518;2023-07-28T13:26:49;20.70;99.90
7002;DHT22;3541;53.230;10.518;2023-07-28T13:29:16;20.70;99.90
7002;DHT22;3541;53.230;10.518;2023-07-28T13:31:43;20.70;99.90
7002;DHT22;3541;53.230;10.518;2023-07-28T13:34:09;20.60;99.90
7002;DHT22;3541;53.230;10.518;2023-07-28T13:36:36;20.60;99.90
7002;DHT22;3541;53.230;10.518;2023-07-28T13:39:03;20.60;99.90
7002;DHT22;3541;53.230;10.518;2023-07-28T13:41:29;20.70;99.90
7002;DHT22;3541;53.230;10.518;2023-07-28T13:43:57;20.80;99.90
7002;DHT22;3541;53.230;10.518;2023-07-28T13:46:24;21.00;99.90
7002;DHT22;3541;53.230;10.518;2023-07-28T13:48:50;21.00;99.90
7002;DHT22;3541;53.230;10.518;2023-07-28T13:51:17;20.90;99.90
7002;DHT22;3541;53.230;10.518;2023-07-28T13:53:43;20.90;99.90
7002;DHT22;3541;53.230;10.518;2023-07-28T13:56:10;21.00;99.90
7002;DHT22;3541;53.230;10.518;2023-07-28T13:58:37;21.10;99.90
7002;DHT22;3541;53.230;10.518;2023-07-28T14:01:04;21.10;99.90
7002;DHT22;3541;53.230;10.518;2023-07-28T14:03:31;21.10;99.90
7002;DHT22;3541;53.230;10.518;2023-07-28T14:05:58;21.10;99.90
7002;DHT22;3541;53.230;10.518;2023-07-28T14:08:24;21.20;99.90
7002;DHT22;3541;53.230;10.518;2023-07-28T14:10:52;21.10;99.90
7002;DHT22;3541;53.230;10.518;2023-07-28T14:13:19;21.00;99.90
7002;DHT22;3541;53.230;10.518;2023-07-28T14:15:45;20.90;99.90
7002;DHT22;3541;53.230;10.518;2023-07-28T14:18:13;20.90;99.90
7002;DHT22;3541;53.230;10.518;2023-07-28T14:20:40;21.00;99.90
7002;DHT22;3541;53.230;10.518;2023-07-28T14:23:20;21.00;99.90
7002;DHT22;3541;53.230;10.518;2023-07-28T14:25:47;21.00;99.90
7002;DHT22;3541;53.230;10.518;2023-07-28T14:28:14;21.20;99.90
7002;DHT22;3541;53.230;10.518;2023-07-28T14:30:40;21.20;99.90
7002;DHT22;3541;53.230;10.518;2023-07-28T14:33:13;21.20;99.90
7002;DHT22;3541;53.230;10.518;2023-07-28T14:35:40;21.20;99.90
7002;DHT22;3541;53.230;10.518;2023-07-28T14:38:07;21.10;99.90
7002;DHT22;3541;53.230;10.518;2023-07-28T14:40:34;21.00;99.90
7002;DHT22;3541;53.230;10.518;2023-07-28T14:43:01;21.10;99.90
7002;DHT22;3541;53.230;10.518;2023-07-28T14:45:28;21.00;99.90
7002;DHT22;3541;53.230;10.518;2023-07-28T14:47:54;21.00;99.90
7002;DHT22;3541;53.230;10.518;2023-07-28T14:50:22;21.00;99.90
7002;DHT22;3541;53.230;10.518;2023-07-28T14:52:49;21.00;99.90
7002;DHT22;3541;53.230;10.518;2023-07-28T14:55:15;21.00;99.90
7002;DHT22;3541;53.230;10.518;2023-07-28T14:57:42;21.10;99.90
7002;DHT22;3541;53.230;10.518;2023-07-28T15:00:10;21.10;99.90
7002;DHT22;3541;53.230;10.518;2023-07-28T15:02:36;21.10;99.90
7002;DHT22;3541;53.230;10.518;2023-07-28T15:05:03;21.00;99.90
7002;DHT22;3541;53.230;10.518;2023-07-28T15:07:33;20.90;99.90
7002;DHT22;3541;53.230;10.518;2023-07-28T15:10:00;20.90;99.90
7002;DHT22;3541;53.230;10.518;2023-07-28T15:12:26;20.90;99.90
7002;DHT22;3541;53.230;10.518;2023-07-28T15:14:53;20.90;99.90
7002;DHT22;3541;53.230;10.518;2023-07-28T15:17:19;21.00;99.90
7002;DHT22;3541;53.230;10.518;2023-07-28T15:19:46;21.20;99.90
7002;DHT22;3541;53.230;10.518;2023-07-28T15:22:13;21.80;99.90
7002;DHT22;3541;53.230;10.518;2023-07-28T15:24:40;22.40;99.90
7002;DHT22;3541;53.230;10.518;2023-07-28T15:27:07;22.90;99.90
7002;DHT22;3541;53.230;10.518;2023-07-28T15:29:34;23.30;99.90
7002;DHT22;3541;53.230;10.518;2023-07-28T15:32:01;23.50;99.90
7002;DHT22;3541;53.230;10.518;2023-07-28T15:34:27;23.70;99.90
7002;DHT22;3541;53.230;10.518;2023-07-28T15:36:57;23.80;99.90
7002;DHT22;3541;53.230;10.518;2023-07-28T15:39:27;23.80;99.90
7002;DHT22;3541;53.230;10.518;2023-07-28T15:41:55;23.70;99.90
7002;DHT22;3541;53.230;10.518;2023-07-28T15:44:21;23.90;99.90
7002;DHT22;3541;53.230;10.518;2023-07-28T15:46:49;24.00;99.90